Time;durP1;ratioP1;P1;durP2;ratioP2;P2;SDS_P1;SDS_P2;PMS_P1;PMS_P2;Temp;Humidity;BMP_temperature;BMP_pressure;BME280_temperature;BME280_humidity;BME280_pressure;Samples;Min_cycle;Max_cycle;Signal;HPM_P1;HPM_P2
2021/10/24 00:00:24;;;;;;;25.90;13.10;;;;;;;6.24;66.58;101833.41;118225;1178;21947;-77
2021/10/24 00:03:10;;;;;;;24.20;12.50;;;;;;;6.19;66.69;101838.48;118098;1177;23417;-77
2021/10/24 00:05:38;;;;;;;30.40;13.20;;;;;;;6.14;66.83;101838.84;118532;1173;21845;-77
2021/10/24 00:08:06;;;;;;;26.80;12.60;;;;;;;6.08;66.83;101837.81;118891;1173;21921;-77
2021/10/24 00:10:34;;;;;;;29.10;14.50;;;;;;;6.03;66.95;101840.95;118358;1176;22894;-75
2021/10/24 00:13:03;;;;;;;28.80;14.20;;;;;;;5.97;67.12;101835.23;118141;1179;21872;-76
2021/10/24 00:15:31;;;;;;;23.50;13.00;;;;;;;5.91;67.04;101839.45;118110;1171;22211;-76
2021/10/24 00:18:01;;;;;;;28.20;13.80;;;;;;;5.85;66.99;101846.81;117925;1179;23423;-77
2021/10/24 00:20:29;;;;;;;28.60;13.10;;;;;;;5.80;67.14;101852.74;118128;1179;21938;-77
2021/10/24 00:22:57;;;;;;;24.40;13.30;;;;;;;5.76;67.14;101850.41;118118;1179;21863;-75
2021/10/24 00:25:26;;;;;;;27.20;12.90;;;;;;;5.71;67.19;101841.45;118124;1177;23643;-75
2021/10/24 00:27:54;;;;;;;26.50;13.50;;;;;;;5.66;67.23;101837.05;118134;1178;23666;-75
2021/10/24 00:30:42;;;;;;;29.20;13.40;;;;;;;5.61;67.35;101849.80;118315;1177;22626;-76
2021/10/24 00:33:11;;;;;;;29.00;13.80;;;;;;;5.56;67.45;101852.90;118273;1177;22887;-76
2021/10/24 00:35:39;;;;;;;27.10;12.30;;;;;;;5.53;67.55;101850.68;118318;1175;22910;-76
2021/10/24 00:38:07;;;;;;;30.20;14.00;;;;;;;5.49;67.64;101846.52;118503;1174;21872;-76
2021/10/24 00:40:38;;;;;;;26.70;12.00;;;;;;;5.47;67.83;101849.48;118408;1177;22190;-77
2021/10/24 00:43:06;;;;;;;26.40;13.90;;;;;;;5.44;67.90;101845.44;118314;1174;22327;-77
2021/10/24 00:45:34;;;;;;;25.10;13.60;;;;;;;5.42;67.99;101849.94;118297;1174;21982;-76
2021/10/24 00:48:03;;;;;;;27.50;13.50;;;;;;;5.40;68.08;101854.29;118423;1174;21935;-77
2021/10/24 00:50:33;;;;;;;31.20;13.10;;;;;;;5.39;68.20;101856.98;117944;1180;23566;-76
2021/10/24 00:53:03;;;;;;;21.30;11.80;;;;;;;5.38;68.24;101855.50;117807;1182;21877;-76
2021/10/24 00:55:31;;;;;;;27.80;13.50;;;;;;;5.36;68.35;101856.08;117539;1183;22915;-76
2021/10/24 00:58:01;;;;;;;24.90;13.50;;;;;;;5.36;68.44;101862.59;117166;1184;21895;-76
2021/10/24 01:00:29;;;;;;;29.90;12.60;;;;;;;5.33;68.29;101859.98;117613;1181;21922;-77
2021/10/24 01:02:57;;;;;;;27.00;13.10;;;;;;;5.30;68.45;101858.03;117194;1182;21873;-76
2021/10/24 01:05:25;;;;;;;27.60;14.30;;;;;;;5.29;68.50;101854.84;117880;1182;22537;-76
2021/10/24 01:07:53;;;;;;;29.10;14.20;;;;;;;5.25;68.36;101853.66;117859;1179;22903;-76
2021/10/24 01:10:22;;;;;;;25.30;13.40;;;;;;;5.21;68.50;101849.73;118152;1177;21910;-75
2021/10/24 01:12:51;;;;;;;27.10;13.40;;;;;;;5.16;68.50;101849.33;118266;1177;21913;-76
2021/10/24 01:15:22;;;;;;;28.90;15.30;;;;;;;5.13;68.69;101848.67;118280;1175;23530;-76
2021/10/24 01:17:50;;;;;;;26.80;14.40;;;;;;;5.09;68.72;101848.73;118689;1176;22644;-76
2021/10/24 01:20:24;;;;;;;27.00;14.00;;;;;;;5.06;68.82;101855.91;118391;1174;22794;-77
2021/10/24 01:22:52;;;;;;;32.00;14.60;;;;;;;5.04;68.92;101860.20;118844;1173;23445;-77
2021/10/24 01:25:21;;;;;;;27.60;14.50;;;;;;;5.03;69.06;101856.77;118976;1170;21862;-77
2021/10/24 01:27:51;;;;;;;25.70;14.20;;;;;;;5.02;68.96;101856.86;118839;1173;21866;-77
2021/10/24 01:30:21;;;;;;;24.40;12.60;;;;;;;4.97;68.83;101853.13;118884;1173;22834;-77
2021/10/24 01:32:49;;;;;;;31.10;14.30;;;;;;;4.94;68.90;101855.22;118934;1174;21861;-77
2021/10/24 01:35:21;;;;;;;;;;;;;;;4.91;68.78;101861.02;118904;1171;22732;-79
2021/10/24 01:37:49;;;;;;;22.90;12.70;;;;;;;4.80;68.88;101861.02;119181;1170;23436;-77
2021/10/24 01:40:19;;;;;;;27.90;13.30;;;;;;;4.74;68.96;101856.81;119204;1170;23697;-76
2021/10/24 01:42:56;;;;;;;22.90;12.60;;;;;;;4.73;69.08;101860.89;119213;1170;22881;-76
2021/10/24 01:45:28;;;;;;;22.40;12.50;;;;;;;4.72;69.12;101862.55;119059;1170;21865;-77
2021/10/24 01:48:16;;;;;;;23.00;13.60;;;;;;;4.68;69.08;101857.66;119050;1173;21868;-76
2021/10/24 01:50:46;;;;;;;21.80;12.80;;;;;;;4.65;69.11;101860.67;119068;1170;21928;-76
2021/10/24 01:53:29;;;;;;;25.30;12.90;;;;;;;4.60;69.14;101858.15;118794;1173;21852;-76
2021/10/24 01:55:58;;;;;;;20.80;12.30;;;;;;;4.53;69.14;101861.93;118872;1171;22889;-77
2021/10/24 01:58:27;;;;;;;27.90;13.40;;;;;;;4.46;69.16;101869.14;118856;1174;22838;-76
2021/10/24 02:00:56;;;;;;;21.40;12.50;;;;;;;4.41;69.23;101867.48;118813;1176;21880;-76
2021/10/24 02:03:33;;;;;;;25.40;11.70;;;;;;;4.36;69.18;101872.36;118470;1174;22890;-76
2021/10/24 02:06:04;;;;;;;28.40;14.00;;;;;;;4.32;69.29;101873.81;118537;1176;22875;-76
2021/10/24 02:08:35;;;;;;;26.90;13.80;;;;;;;4.28;69.51;101876.11;118303;1177;22925;-76
2021/10/24 02:11:03;;;;;;;31.00;15.10;;;;;;;4.27;69.68;101874.80;118671;1176;21883;-75
2021/10/24 02:13:32;;;;;;;26.70;13.80;;;;;;;4.25;69.70;101877.88;118744;1174;21852;-75
2021/10/24 02:16:06;;;;;;;27.30;13.00;;;;;;;4.20;69.60;101876.77;118839;1174;21901;-76
2021/10/24 02:18:37;;;;;;;26.40;12.00;;;;;;;4.17;69.74;101885.33;118806;1170;21844;-75
2021/10/24 02:21:06;;;;;;;24.00;13.70;;;;;;;4.15;69.81;101891.02;119115;1170;23611;-75
2021/10/24 02:23:37;;;;;;;;;;;;;;;4.12;69.80;101884.88;119219;1165;23511;-76
2021/10/24 02:26:06;;;;;;;26.60;13.90;;;;;;;4.02;69.93;101885.62;119275;1170;21874;-75
2021/10/24 02:28:34;;;;;;;24.60;13.00;;;;;;;3.99;70.01;101888.09;119228;1167;23003;-75
2021/10/24 02:31:02;;;;;;;25.90;13.30;;;;;;;4.00;70.13;101891.00;118845;1171;23414;-75
2021/10/24 02:33:49;;;;;;;26.10;12.90;;;;;;;3.99;70.21;101893.51;118881;1174;21876;-76
2021/10/24 02:36:24;;;;;;;21.20;13.00;;;;;;;3.94;70.00;101893.77;118724;1170;21858;-75
2021/10/24 02:39:03;;;;;;;23.40;12.90;;;;;;;3.90;69.92;101898.36;118759;1175;24205;-75
2021/10/24 02:41:36;;;;;;;27.30;14.00;;;;;;;3.85;69.92;101896.04;118375;1174;21865;-75
2021/10/24 02:44:04;;;;;;;26.20;13.80;;;;;;;3.81;69.81;101900.61;118249;1177;22092;-77
2021/10/24 02:46:37;;;;;;;25.10;13.30;;;;;;;3.77;69.92;101901.70;118149;1178;21886;-76
2021/10/24 02:49:10;;;;;;;25.30;14.40;;;;;;;3.74;69.98;101904.15;118067;1178;21911;-76
2021/10/24 02:51:49;;;;;;;24.20;13.70;;;;;;;3.71;70.11;101900.66;118234;1177;21870;-75
2021/10/24 02:54:18;;;;;;;26.90;14.10;;;;;;;3.68;70.18;101900.13;118145;1177;22897;-76
2021/10/24 02:56:47;;;;;;;23.60;14.40;;;;;;;3.63;70.24;101903.16;118331;1178;21955;-75
2021/10/24 02:59:18;;;;;;;29.00;14.40;;;;;;;3.57;70.20;101901.10;118157;1178;21862;-76
2021/10/24 03:01:47;;;;;;;28.00;14.10;;;;;;;3.50;70.19;101901.45;118049;1176;22928;-76
2021/10/24 03:04:16;;;;;;;24.00;13.80;;;;;;;3.43;70.19;101905.48;118485;1176;21940;-76
2021/10/24 03:06:48;;;;;;;;;;;;;;;3.39;70.18;101909.92;118144;1178;21855;-76
2021/10/24 03:09:17;;;;;;;25.30;14.20;;;;;;;3.27;70.31;101912.13;118227;1178;23353;-75
2021/10/24 03:11:45;;;;;;;25.20;14.80;;;;;;;3.21;70.37;101911.40;118250;1178;21890;-75
2021/10/24 03:14:16;;;;;;;23.80;14.80;;;;;;;3.20;70.60;101907.95;118339;1176;22338;-75
2021/10/24 03:16:45;;;;;;;25.30;15.40;;;;;;;3.19;70.72;101908.34;118342;1177;22907;-75
2021/10/24 03:19:14;;;;;;;26.00;14.40;;;;;;;3.20;70.83;101906.40;118648;1174;23431;-76
2021/10/24 03:21:49;;;;;;;26.90;18.50;;;;;;;3.17;70.79;101906.38;118542;1174;22634;-76
2021/10/24 03:24:19;;;;;;;27.80;14.80;;;;;;;3.16;70.75;101908.20;118687;1171;21850;-76
2021/10/24 03:26:48;;;;;;;23.80;13.80;;;;;;;3.13;70.76;101910.10;119047;1171;21895;-76
2021/10/24 03:29:16;;;;;;;28.40;16.20;;;;;;;3.11;70.80;101912.14;119191;1171;21879;-76
2021/10/24 03:31:45;;;;;;;25.20;14.80;;;;;;;3.08;70.82;101917.31;119077;1170;22223;-76
2021/10/24 03:34:14;;;;;;;29.20;15.00;;;;;;;3.04;70.89;101919.24;119271;1171;22865;-76
2021/10/24 03:36:42;;;;;;;28.30;15.20;;;;;;;3.00;70.94;101914.75;119106;1170;21850;-75
2021/10/24 03:39:10;;;;;;;26.10;13.70;;;;;;;2.96;70.95;101916.75;119122;1171;21844;-77
2021/10/24 03:41:39;;;;;;;23.00;14.00;;;;;;;2.91;71.12;101919.61;118805;1171;21890;-76
2021/10/24 03:44:09;;;;;;;25.10;15.60;;;;;;;2.87;71.22;101923.27;118977;1173;22886;-75
2021/10/24 03:46:37;;;;;;;22.60;13.90;;;;;;;2.85;71.29;101929.14;118964;1173;21863;-76
2021/10/24 03:49:11;;;;;;;30.80;15.20;;;;;;;2.82;71.34;101929.59;118947;1165;22891;-76
2021/10/24 03:51:40;;;;;;;23.90;15.70;;;;;;;2.82;71.54;101929.09;118865;1171;22030;-76
2021/10/24 03:54:08;;;;;;;30.90;16.40;;;;;;;2.81;71.52;101928.43;118716;1173;21866;-76
2021/10/24 03:56:36;;;;;;;24.10;15.80;;;;;;;2.83;71.65;101932.54;118850;1174;23416;-77
2021/10/24 03:59:04;;;;;;;22.60;14.80;;;;;;;2.82;71.72;101936.76;118851;1171;22841;-76
2021/10/24 04:01:32;;;;;;;27.00;16.70;;;;;;;2.82;71.69;101938.33;119208;1168;23510;-77
2021/10/24 04:04:01;;;;;;;24.00;17.50;;;;;;;2.80;71.65;101939.81;119176;1167;21858;-76
2021/10/24 04:06:29;;;;;;;28.60;16.80;;;;;;;2.78;71.61;101935.39;118797;1173;22849;-76
2021/10/24 04:08:57;;;;;;;35.70;18.20;;;;;;;2.76;71.59;101936.73;118853;1171;21910;-76
2021/10/24 04:12:05;;;;;;;33.60;17.70;;;;;;;2.75;71.82;101942.69;118668;1176;23602;-76
2021/10/24 04:14:44;;;;;;;30.30;17.50;;;;;;;2.77;72.16;101939.29;118234;1178;22896;-76
2021/10/24 04:17:15;;;;;;;27.90;16.40;;;;;;;2.77;72.21;101940.31;118276;1175;22373;-76
2021/10/24 04:19:51;;;;;;;28.60;16.60;;;;;;;2.80;72.32;101938.75;117769;1181;22769;-76
2021/10/24 04:22:19;;;;;;;29.90;17.00;;;;;;;2.81;72.31;101939.55;117939;1177;21963;-76
2021/10/24 04:24:47;;;;;;;35.80;18.00;;;;;;;2.84;72.37;101940.47;117950;1178;22896;-76
2021/10/24 04:27:15;;;;;;;22.20;16.00;;;;;;;2.86;72.33;101942.15;118002;1179;21850;-76
2021/10/24 04:29:43;;;;;;;25.60;15.30;;;;;;;2.85;72.27;101939.20;118146;1176;21870;-76
2021/10/24 04:32:11;;;;;;;25.30;15.70;;;;;;;2.83;72.19;101933.02;118184;1177;21872;-77
2021/10/24 04:34:39;;;;;;;29.00;17.60;;;;;;;2.82;72.24;101934.48;118615;1173;23518;-76
2021/10/24 04:37:08;;;;;;;25.00;15.90;;;;;;;2.80;72.27;101932.52;118480;1174;22158;-76
2021/10/24 04:39:36;;;;;;;34.10;18.00;;;;;;;2.77;72.27;101933.19;118364;1178;22221;-75
2021/10/24 04:42:05;;;;;;;33.00;18.20;;;;;;;2.74;72.33;101935.25;118015;1179;21890;-78
2021/10/24 04:44:33;;;;;;;29.80;16.80;;;;;;;2.71;72.22;101935.41;117921;1180;21867;-77
2021/10/24 04:47:04;;;;;;;27.40;15.80;;;;;;;2.68;72.24;101938.70;117946;1177;23526;-76
2021/10/24 04:49:33;;;;;;;26.50;17.40;;;;;;;2.66;72.31;101940.70;117979;1174;21903;-76
2021/10/24 04:52:02;;;;;;;24.40;16.20;;;;;;;2.65;72.31;101945.48;118071;1171;23534;-77
2021/10/24 04:54:32;;;;;;;30.60;18.40;;;;;;;2.67;72.64;101946.07;117893;1182;22699;-76
2021/10/24 04:57:02;;;;;;;28.10;15.70;;;;;;;2.68;72.56;101948.46;117491;1179;21872;-78
2021/10/24 04:59:36;;;;;;;23.80;14.80;;;;;;;2.68;72.64;101951.56;118254;1176;21900;-78
2021/10/24 05:02:04;;;;;;;24.50;15.00;;;;;;;2.70;72.87;101953.73;118545;1174;21853;-77
2021/10/24 05:04:32;;;;;;;28.90;15.80;;;;;;;2.75;73.12;101954.85;118725;1174;21984;-76
2021/10/24 05:07:05;;;;;;;30.00;18.30;;;;;;;2.80;73.30;101953.71;118513;1176;21890;-76
2021/10/24 05:09:33;;;;;;;32.40;21.10;;;;;;;2.86;73.31;101954.69;118716;1173;24838;-76
2021/10/24 05:12:02;;;;;;;33.40;22.20;;;;;;;2.88;73.11;101958.40;118545;1174;21845;-76
2021/10/24 05:14:30;;;;;;;31.30;22.20;;;;;;;2.86;72.83;101955.86;119060;1170;21991;-76
2021/10/24 05:16:59;;;;;;;33.80;22.60;;;;;;;2.85;72.83;101958.69;119304;1170;21879;-76
2021/10/24 05:19:27;;;;;;;33.20;22.70;;;;;;;2.85;72.83;101962.36;119244;1168;24126;-76
2021/10/24 05:22:14;;;;;;;42.60;25.00;;;;;;;2.82;72.81;101963.21;119223;1170;21847;-75
2021/10/24 05:24:42;;;;;;;41.30;25.50;;;;;;;2.77;72.65;101967.44;119157;1171;21863;-75
2021/10/24 05:27:11;;;;;;;38.80;26.30;;;;;;;2.73;72.52;101970.63;119065;1170;21867;-75
2021/10/24 05:29:39;;;;;;;55.20;33.70;;;;;;;2.71;72.57;101974.20;119233;1170;22706;-76
2021/10/24 05:32:07;;;;;;;51.60;33.50;;;;;;;2.73;72.85;101977.23;119169;1170;21954;-78
2021/10/24 05:34:35;;;;;;;44.20;29.20;;;;;;;2.75;72.98;101982.02;119284;1168;23406;-75
2021/10/24 05:37:11;;;;;;;45.60;30.00;;;;;;;2.77;73.12;101984.84;119138;1171;21859;-75
2021/10/24 05:39:39;;;;;;;44.50;28.70;;;;;;;2.81;73.08;101986.58;118808;1174;21853;-75
2021/10/24 05:42:37;;;;;;;51.80;30.60;;;;;;;2.79;72.77;101989.61;119026;1173;22884;-76
2021/10/24 05:45:07;;;;;;;52.80;32.70;;;;;;;2.79;72.72;101995.20;118889;1171;23540;-75
2021/10/24 05:47:36;;;;;;;47.60;34.60;;;;;;;2.81;72.91;101999.43;118994;1170;21853;-75
2021/10/24 05:50:12;;;;;;;57.60;36.70;;;;;;;2.86;73.05;102002.69;118767;1174;21869;-75
2021/10/24 05:52:47;;;;;;;53.70;31.20;;;;;;;2.89;73.03;102003.73;118994;1170;21892;-77
2021/10/24 05:55:42;;;;;;;53.30;34.30;;;;;;;2.87;72.64;102004.73;118998;1170;22906;-75
2021/10/24 05:58:18;;;;;;;47.60;29.80;;;;;;;2.85;72.54;102011.09;118552;1174;22893;-76
2021/10/24 06:01:04;;;;;;;40.70;28.40;;;;;;;2.84;72.57;102012.70;118742;1174;23437;-76
2021/10/24 06:03:57;;;;;;;49.00;34.00;;;;;;;2.77;72.26;102017.40;118820;1174;21862;-76
2021/10/24 06:07:00;;;;;;;44.30;32.90;;;;;;;2.71;72.24;102017.36;118371;1176;24267;-76
2021/10/24 06:12:16;;;;;;;48.60;32.40;;;;;;;2.70;72.39;102026.30;118245;1178;23514;-75
2021/10/24 06:14:48;;;;;;;44.50;33.00;;;;;;;2.70;72.49;102029.73;118251;1176;21878;-77
2021/10/24 06:17:55;;;;;;;46.50;34.40;;;;;;;2.75;72.76;102032.81;118147;1179;21921;-76
2021/10/24 06:20:30;;;;;;;45.40;33.60;;;;;;;2.84;73.27;102032.89;117850;1181;23422;-75
2021/10/24 06:23:16;;;;;;;48.70;35.30;;;;;;;2.93;73.57;102034.20;117713;1182;21871;-76
2021/10/24 06:26:15;;;;;;;63.80;42.30;;;;;;;3.02;73.56;102035.28;117437;1185;21876;-76
2021/10/24 06:29:16;;;;;;;58.50;38.00;;;;;;;3.13;73.57;102036.80;117839;1181;21885;-77
2021/10/24 06:31:52;;;;;;;53.60;34.60;;;;;;;3.19;73.26;102042.05;118055;1179;22900;-77
2021/10/24 06:34:44;;;;;;;47.80;30.50;;;;;;;3.24;72.95;102048.63;117999;1176;22974;-76
2021/10/24 06:37:44;;;;;;;46.70;31.70;;;;;;;3.27;72.74;102053.52;118078;1179;21866;-76
2021/10/24 06:40:18;;;;;;;42.10;31.50;;;;;;;3.29;72.70;102057.77;117888;1171;23650;-75
2021/10/24 06:42:52;;;;;;;45.90;31.80;;;;;;;3.34;72.99;102064.14;117911;1177;22862;-76
2021/10/24 06:46:03;;;;;;;79.90;51.20;;;;;;;3.38;73.23;102063.55;117978;1180;22940;-76
2021/10/24 06:49:05;;;;;;;118.30;66.40;;;;;;;3.44;73.35;102073.71;117833;1179;23540;-77
2021/10/24 06:51:49;;;;;;;161.40;81.70;;;;;;;3.50;73.49;102069.89;118029;1167;22940;-76
2021/10/24 06:54:39;;;;;;;56.70;36.30;;;;;;;3.60;73.56;102071.83;118111;1179;21854;-76
2021/10/24 06:57:07;;;;;;;50.90;37.60;;;;;;;3.68;73.39;102074.88;118382;1174;22874;-76
2021/10/24 07:00:08;;;;;;;45.90;36.30;;;;;;;3.75;73.11;102074.50;118859;1174;23610;-76
2021/10/24 07:03:03;;;;;;;50.20;36.20;;;;;;;3.79;72.98;102077.77;118878;1170;23430;-76
2021/10/24 07:06:03;;;;;;;51.80;38.00;;;;;;;3.86;72.90;102078.11;119265;1158;22925;-77
2021/10/24 07:08:46;;;;;;;59.60;40.20;;;;;;;3.92;72.92;102079.55;119111;1169;22706;-77
2021/10/24 07:11:41;;;;;;;56.80;43.10;;;;;;;3.99;72.84;102078.46;118846;1171;21869;-76
2021/10/24 07:14:15;;;;;;;72.40;48.30;;;;;;;4.06;72.87;102076.33;118631;1176;21989;-76
2021/10/24 07:16:47;;;;;;;72.10;51.00;;;;;;;4.12;72.84;102077.23;118665;1176;21883;-77
2021/10/24 07:19:24;;;;;;;83.00;48.00;;;;;;;4.17;72.74;102080.07;117942;1179;21876;-76
2021/10/24 07:22:11;;;;;;;;;;;;;;;;;;;;;
2021/10/24 07:25:18;;;;;;;54.90;39.30;;;;;;;4.33;72.97;102082.74;117106;1187;22861;-77
2021/10/24 07:27:51;;;;;;;53.10;36.40;;;;;;;4.38;72.69;102079.45;117076;1186;23483;-76
2021/10/24 07:30:31;;;;;;;56.10;40.40;;;;;;;4.40;72.48;102081.79;117353;1185;23446;-77
2021/10/24 07:33:30;;;;;;;67.60;40.40;;;;;;;4.46;72.73;102079.54;117172;1186;21868;-76
2021/10/24 07:37:07;;;;;;;86.70;39.70;;;;;;;4.58;73.16;102077.09;116999;1186;21986;-76
2021/10/24 07:40:28;;;;;;;80.50;41.20;;;;;;;4.80;73.57;102082.32;117117;1187;21929;-77
2021/10/24 07:44:30;;;;;;;;;;;;;;;;;;;;;
2021/10/24 07:48:07;;;;;;;93.70;48.00;;;;;;;5.62;74.40;102087.25;117467;1185;22966;-76
2021/10/24 07:51:06;;;;;;;74.50;43.40;;;;;;;5.88;72.91;102093.20;116933;1188;23598;-77
2021/10/24 07:54:08;;;;;;;66.40;37.70;;;;;;;6.15;72.98;102091.04;117216;1184;23440;-77
2021/10/24 07:56:55;;;;;;;;;;;;;;;;;;;;;
2021/10/24 07:59:51;;;;;;;63.20;41.70;;;;;;;6.84;72.28;102096.20;118134;1179;23045;-77
2021/10/24 08:02:24;;;;;;;66.40;38.80;;;;;;;7.04;71.52;102093.85;118190;1179;21855;-77
2021/10/24 08:05:07;;;;;;;;;;;;;;;7.22;70.83;102096.63;118109;1177;22968;-77
2021/10/24 08:08:12;;;;;;;57.50;39.80;;;;;;;7.33;70.24;102102.23;118018;1177;22773;-76
2021/10/24 08:11:50;;;;;;;;;;;;;;;;;;;;;
2021/10/24 08:15:14;;;;;;;54.50;39.50;;;;;;;7.63;68.57;102098.77;118392;1177;24767;-77
2021/10/24 08:18:01;;;;;;;70.30;54.80;;;;;;;7.78;68.56;102097.36;117911;1181;23595;-77
2021/10/24 08:21:01;;;;;;;38.20;30.20;;;;;;;7.91;68.14;102099.27;117859;1180;21987;-77
2021/10/24 08:24:19;;;;;;;;;;;;;;;;;;;;;
2021/10/24 08:27:53;;;;;;;35.50;24.10;;;;;;;8.22;68.28;102101.31;118009;1178;22625;-76
2021/10/24 08:31:25;;;;;;;32.80;24.30;;;;;;;8.29;67.30;102105.55;117879;1180;23636;-77
2021/10/24 08:34:37;;;;;;;35.10;25.00;;;;;;;8.35;66.94;102106.16;117499;1184;21869;-78
2021/10/24 08:37:49;;;;;;;36.00;26.60;;;;;;;8.32;66.13;102110.17;117686;1182;21924;-78
2021/10/24 08:41:06;;;;;;;30.70;22.80;;;;;;;8.25;65.93;102107.00;117729;1174;23607;-76
2021/10/24 08:43:40;;;;;;;32.00;25.00;;;;;;;8.33;66.61;102109.63;117533;1183;21898;-76
2021/10/24 08:46:23;;;;;;;31.40;22.00;;;;;;;8.40;66.43;102113.04;117826;1180;21880;-76
2021/10/24 08:49:20;;;;;;;30.30;22.10;;;;;;;8.42;66.08;102111.64;117826;1180;21853;-76
2021/10/24 08:52:00;;;;;;;39.70;30.70;;;;;;;8.37;65.82;102113.75;118123;1177;21850;-77
2021/10/24 08:54:58;;;;;;;33.30;28.10;;;;;;;8.31;65.95;102112.95;118217;1180;21900;-76
2021/10/24 08:58:07;;;;;;;36.10;29.60;;;;;;;8.28;66.26;102111.55;118045;1177;21923;-76
2021/10/24 09:01:17;;;;;;;39.20;28.20;;;;;;;8.31;66.71;102111.55;118289;1177;22847;-77
2021/10/24 09:04:26;;;;;;;39.50;27.20;;;;;;;8.37;67.00;102115.84;118476;1174;21872;-77
2021/10/24 09:07:06;;;;;;;34.80;27.00;;;;;;;8.46;66.78;102112.25;118659;1174;22926;-78
2021/10/24 09:09:36;;;;;;;48.60;32.90;;;;;;;8.51;66.72;102113.48;118446;1176;23437;-76
2021/10/24 09:12:10;;;;;;;42.80;32.70;;;;;;;8.61;67.14;102116.76;118350;1172;21855;-76
2021/10/24 09:14:54;;;;;;;45.30;33.70;;;;;;;8.72;67.19;102115.61;118953;1172;22902;-76
2021/10/24 09:18:23;;;;;;;44.80;34.60;;;;;;;8.86;67.10;102111.63;119183;1170;21874;-77
2021/10/24 09:21:29;;;;;;;48.40;35.90;;;;;;;8.91;66.86;102111.08;119049;1173;23577;-76
2021/10/24 09:25:09;;;;;;;47.60;36.70;;;;;;;8.94;66.98;102111.88;118454;1175;22611;-78
2021/10/24 09:27:51;;;;;;;48.20;35.30;;;;;;;9.03;67.08;102115.21;118281;1178;23413;-77
2021/10/24 09:31:25;;;;;;;47.30;37.50;;;;;;;9.11;66.90;102115.02;117887;1181;22728;-77
2021/10/24 09:38:49;;;;;;;;;;;;;;;;;;;;;
2021/10/24 09:42:54;;;;;;;50.30;34.10;;;;;;;9.54;66.89;102118.45;117547;1184;21889;-77
2021/10/24 09:47:25;;;;;;;;;;;;;;;;;;;;;
2021/10/24 09:51:32;;;;;;;;;;;;;;;;;;;;;
2021/10/24 09:55:09;;;;;;;31.40;23.00;;;;;;;10.54;65.71;102117.91;116673;1192;24144;-76
2021/10/24 09:59:06;;;;;;;27.80;21.10;;;;;;;10.95;65.38;102118.48;116855;1192;21876;-77
2021/10/24 10:02:03;;;;;;;;;;;;;;;;;;;;;
2021/10/24 10:05:03;;;;;;;25.50;18.70;;;;;;;11.45;62.82;102121.85;117107;1188;22632;-77
2021/10/24 10:07:47;;;;;;;28.70;18.60;;;;;;;11.67;62.16;102120.30;117097;1187;21872;-77
2021/10/24 10:11:42;;;;;;;41.30;27.70;;;;;;;11.89;61.10;102118.82;117225;1187;23455;-77
2021/10/24 10:18:42;;;;;;;37.80;31.30;;;;;;;12.48;60.58;102116.63;116885;1192;22991;-75
2021/10/24 10:21:29;;;;;;;35.50;24.70;;;;;;;12.97;60.92;102111.27;116885;1190;22012;-75
2021/10/24 10:24:19;;;;;;;;;;;;;;;;;;;;;
2021/10/24 10:30:48;;;;;;;23.10;15.50;;;;;;;14.25;57.03;102110.81;117214;1182;21919;-77
2021/10/24 10:34:12;;;;;;;25.50;15.60;;;;;;;14.60;56.25;102107.76;117926;1180;21898;-76
2021/10/24 10:36:59;;;;;;;25.50;15.90;;;;;;;15.00;54.81;102105.13;117934;1175;21869;-76
2021/10/24 10:39:33;;;;;;;24.10;14.80;;;;;;;15.33;53.78;102101.45;117932;1182;23509;-76
2021/10/24 10:42:26;;;;;;;21.50;13.90;;;;;;;15.65;52.94;102097.33;117940;1182;22339;-76
2021/10/24 10:45:16;;;;;;;22.20;14.00;;;;;;;16.01;51.95;102098.44;117982;1180;21960;-75
2021/10/24 10:47:55;;;;;;;19.20;11.00;;;;;;;16.28;50.15;102101.27;117951;1179;21912;-76
2021/10/24 10:50:39;;;;;;;20.20;12.30;;;;;;;16.55;49.65;102100.73;118106;1177;21882;-75
2021/10/24 10:53:18;;;;;;;21.70;11.10;;;;;;;16.76;48.22;102099.54;118369;1177;23439;-75
2021/10/24 10:56:08;;;;;;;13.70;8.20;;;;;;;16.56;45.17;102095.79;118645;1173;21838;-77
2021/10/24 10:59:16;;;;;;;17.70;8.70;;;;;;;15.94;45.01;102094.88;118268;1179;22194;-77
2021/10/24 11:02:56;;;;;;;14.30;8.40;;;;;;;15.42;45.90;102096.45;118335;1177;21879;-76
2021/10/24 11:05:42;;;;;;;15.80;8.40;;;;;;;15.14;46.47;102093.99;117994;1180;21887;-76
2021/10/24 11:08:59;;;;;;;;;;;;;;;;;;;;;
2021/10/24 11:12:56;;;;;;;16.20;7.70;;;;;;;14.32;47.10;102091.45;117256;1187;23878;-75
2021/10/24 11:15:41;;;;;;;21.00;8.00;;;;;;;14.02;47.77;102095.41;116806;1183;21900;-76
2021/10/24 11:18:43;;;;;;;14.40;6.40;;;;;;;13.84;47.96;102095.91;117414;1185;21883;-75
2021/10/24 11:21:32;;;;;;;13.00;7.80;;;;;;;13.55;47.97;102097.50;117269;1185;21882;-76
2021/10/24 11:24:11;;;;;;;15.90;8.10;;;;;;;13.34;48.56;102094.27;117182;1186;22000;-76
2021/10/24 11:26:54;;;;;;;16.40;8.00;;;;;;;13.19;48.90;102094.23;117207;1186;21895;-76
2021/10/24 11:29:24;;;;;;;16.60;7.00;;;;;;;13.09;49.44;102085.27;117200;1184;21886;-76
2021/10/24 11:32:36;;;;;;;20.50;6.80;;;;;;;13.00;49.50;102084.16;117244;1186;21997;-77
2021/10/24 11:35:13;;;;;;;20.80;6.00;;;;;;;12.85;49.34;102083.80;117460;1183;23444;-75
2021/10/24 11:37:58;;;;;;;17.80;6.20;;;;;;;12.64;49.38;102085.50;117562;1185;22917;-75
2021/10/24 11:40:36;;;;;;;15.30;6.20;;;;;;;12.48;49.76;102082.39;117353;1185;21903;-76
2021/10/24 11:43:06;;;;;;;18.80;5.50;;;;;;;12.35;50.08;102075.95;117882;1179;21891;-76
2021/10/24 11:45:50;;;;;;;15.90;5.30;;;;;;;12.20;50.14;102072.78;118222;1176;23041;-77
2021/10/24 11:48:46;;;;;;;;;;;;;;;;;;;;;
2021/10/24 11:51:33;;;;;;;18.00;6.40;;;;;;;12.09;50.91;102064.14;118784;1174;23743;-76
2021/10/24 11:54:08;;;;;;;12.70;5.20;;;;;;;12.04;50.84;102062.91;118671;1174;21879;-76
2021/10/24 12:00:07;;;;;;;20.60;8.70;;;;;;;11.82;51.01;102053.92;118938;1174;22696;-76
2021/10/24 12:03:01;;;;;;;16.60;7.80;;;;;;;11.80;51.40;102053.87;118859;1175;21859;-76
2021/10/24 12:05:39;;;;;;;15.10;6.80;;;;;;;11.77;51.11;102056.10;118882;1171;21887;-76
2021/10/24 12:08:12;;;;;;;45.30;25.60;;;;;;;11.72;51.18;102055.15;118910;1173;24170;-77
2021/10/24 12:11:25;;;;;;;;;;;;;;;;;;;;;
2021/10/24 12:15:08;;;;;;;15.20;7.20;;;;;;;11.52;51.20;102053.45;118874;1174;21889;-76
2021/10/24 12:17:41;;;;;;;13.80;5.00;;;;;;;11.43;51.51;102050.23;118716;1176;22612;-76
2021/10/24 12:20:31;;;;;;;15.50;5.60;;;;;;;11.39;51.88;102041.61;118314;1179;23516;-76
2021/10/24 12:23:03;;;;;;;14.50;4.90;;;;;;;11.42;52.17;102042.56;118166;1179;21899;-77
2021/10/24 12:25:51;;;;;;;15.20;7.10;;;;;;;11.40;52.00;102035.31;118327;1176;21847;-77
2021/10/24 12:28:33;;;;;;;12.40;5.30;;;;;;;11.37;52.17;102033.63;118438;1176;21908;-77
2021/10/24 12:31:20;;;;;;;21.40;7.90;;;;;;;11.36;52.12;102032.31;118455;1176;22329;-76
2021/10/24 12:33:50;;;;;;;16.20;6.50;;;;;;;11.32;51.83;102026.67;118286;1179;21885;-77
2021/10/24 12:36:36;;;;;;;14.90;9.30;;;;;;;11.29;52.00;102020.36;118406;1177;21878;-76
2021/10/24 12:39:19;;;;;;;20.10;11.50;;;;;;;11.31;51.97;102017.95;118194;1178;21907;-77
2021/10/24 12:41:49;;;;;;;14.40;6.90;;;;;;;11.33;51.93;102019.90;118231;1178;21861;-76
2021/10/24 12:44:23;;;;;;;15.70;7.70;;;;;;;11.29;51.62;102015.63;117959;1180;22947;-77
2021/10/24 12:47:11;;;;;;;15.90;8.80;;;;;;;11.27;51.80;102012.77;118057;1180;23440;-76
2021/10/24 12:50:04;;;;;;;12.60;7.10;;;;;;;11.24;51.88;102007.20;117878;1182;22212;-76
2021/10/24 12:52:35;;;;;;;12.40;6.70;;;;;;;11.16;51.54;102003.86;118231;1174;21914;-76
2021/10/24 12:55:09;;;;;;;19.30;7.40;;;;;;;11.11;51.72;101998.64;118399;1176;21895;-76
2021/10/24 12:57:56;;;;;;;16.90;6.90;;;;;;;11.09;51.96;101994.40;118044;1180;21889;-77
2021/10/24 13:00:38;;;;;;;29.30;14.70;;;;;;;11.07;52.06;101989.96;118214;1179;23510;-76